Time;durP1;ratioP1;P1;durP2;ratioP2;P2;SDS_P1;SDS_P2;PMS_P1;PMS_P2;Temp;Humidity;BMP_temperature;BMP_pressure;BME280_temperature;BME280_humidity;BME280_pressure;Samples;Min_cycle;Max_cycle;Signal;HPM_P1;HPM_P2
2021/06/29 00:00:27;;;;;;;12.10;10.45;;;;;;;15.42;69.58;100101.42;2086785;84;21039;-68
2021/06/29 00:03:29;;;;;;;12.18;9.70;;;;;;;15.40;69.75;100095.44;2082816;82;21011;-68
2021/06/29 00:06:31;;;;;;;11.20;9.03;;;;;;;15.43;70.03;100091.06;2087135;82;21032;-68
2021/06/29 00:09:33;;;;;;;14.18;10.68;;;;;;;15.44;70.09;100091.37;2084717;83;21070;-68
2021/06/29 00:12:34;;;;;;;14.70;10.30;;;;;;;15.46;70.54;100090.14;2084696;82;21006;-68
2021/06/29 00:15:36;;;;;;;13.85;9.73;;;;;;;15.45;70.43;100079.12;2084284;83;21073;-68
2021/06/29 00:18:40;;;;;;;13.38;9.38;;;;;;;15.44;70.47;100079.33;2086239;84;20985;-68
2021/06/29 00:21:42;;;;;;;12.95;8.75;;;;;;;15.40;70.15;100083.41;2086047;84;21473;-69
2021/06/29 00:24:44;;;;;;;13.15;9.65;;;;;;;15.41;69.99;100078.40;2083173;84;21089;-68
2021/06/29 00:27:45;;;;;;;12.60;9.80;;;;;;;15.41;70.00;100076.55;2082044;84;21016;-68
2021/06/29 00:30:49;;;;;;;15.93;10.60;;;;;;;15.41;70.11;100075.20;2084592;84;21451;-72
2021/06/29 00:33:51;;;;;;;14.98;9.18;;;;;;;15.34;70.25;100074.86;2084617;84;21029;-69
2021/06/29 00:36:53;;;;;;;10.65;8.50;;;;;;;15.31;70.13;100070.73;2084080;84;21067;-68
2021/06/29 00:39:55;;;;;;;12.30;9.98;;;;;;;15.31;69.89;100060.03;2081537;84;21083;-68
2021/06/29 00:42:57;;;;;;;14.47;9.48;;;;;;;15.34;70.08;100058.81;2085247;82;21121;-68
2021/06/29 00:45:59;;;;;;;16.77;9.53;;;;;;;15.32;69.98;100058.22;2083817;82;21078;-69
2021/06/29 00:49:01;;;;;;;12.58;9.30;;;;;;;15.29;70.01;100062.59;2083857;84;21542;-72
2021/06/29 00:52:04;;;;;;;14.35;9.88;;;;;;;15.24;69.96;100057.34;2113187;82;21156;-68
2021/06/29 00:55:07;;;;;;;12.23;10.43;;;;;;;15.20;69.88;100057.93;2110534;82;20998;-68
2021/06/29 00:58:10;;;;;;;12.68;9.75;;;;;;;15.11;70.24;100053.78;2106867;82;21052;-67
2021/06/29 01:01:12;;;;;;;14.40;9.38;;;;;;;15.02;70.71;100054.45;2109971;82;21018;-69
2021/06/29 01:04:16;;;;;;;16.32;10.38;;;;;;;14.94;70.81;100047.93;2109193;81;21017;-70
2021/06/29 01:07:17;;;;;;;12.63;10.05;;;;;;;14.90;70.91;100045.36;2114555;82;21081;-68
2021/06/29 01:10:22;;;;;;;12.70;10.43;;;;;;;14.91;70.59;100042.98;2111324;82;21106;-68
2021/06/29 01:13:33;;;;;;;12.25;9.80;;;;;;;14.87;70.83;100039.08;2108606;81;21153;-72
2021/06/29 01:16:35;;;;;;;14.60;11.15;;;;;;;14.84;70.93;100035.43;2106447;83;21019;-68
2021/06/29 01:19:44;;;;;;;18.55;10.18;;;;;;;14.84;71.26;100031.42;2115188;82;21074;-68
2021/06/29 01:22:42;;;;;;;11.45;10.00;;;;;;;14.88;71.33;100024.16;2109889;82;21576;-68
2021/06/29 01:25:45;;;;;;;14.93;11.30;;;;;;;14.95;71.30;100023.70;2108541;82;21011;-67
2021/06/29 01:29:01;;;;;;;11.63;10.40;;;;;;;15.03;71.28;100028.04;2115757;81;21527;-68
2021/06/29 01:31:57;;;;;;;13.13;11.20;;;;;;;15.12;71.33;100022.02;2112029;81;21097;-68
2021/06/29 01:35:06;;;;;;;13.53;10.93;;;;;;;15.21;71.44;100020.33;2107912;82;20998;-68
2021/06/29 01:38:10;;;;;;;11.40;10.20;;;;;;;15.22;71.28;100023.81;2113314;82;21078;-67
2021/06/29 01:41:16;;;;;;;11.35;8.95;;;;;;;15.23;71.07;100025.45;2115096;82;21006;-67
2021/06/29 01:44:25;;;;;;;13.60;10.53;;;;;;;15.22;70.56;100024.64;2110594;82;21544;-69
2021/06/29 01:48:16;;;;;;;19.35;10.95;;;;;;;15.17;71.02;100015.05;2116984;82;21121;-67
2021/06/29 01:50:30;;;;;;;13.83;10.32;;;;;;;15.09;71.09;100012.58;2079076;82;21012;-68
2021/06/29 01:53:32;;;;;;;16.25;10.95;;;;;;;14.98;71.22;100013.14;2087091;83;21116;-69
2021/06/29 01:56:36;;;;;;;15.88;10.93;;;;;;;14.96;71.27;100012.50;2084016;83;21089;-67
2021/06/29 01:59:43;;;;;;;14.43;11.57;;;;;;;14.98;71.35;100010.47;2084690;83;21656;-67
2021/06/29 02:02:41;;;;;;;13.93;10.85;;;;;;;15.00;71.57;100009.73;2084875;82;21025;-68
2021/06/29 02:05:43;;;;;;;15.32;11.57;;;;;;;14.97;71.61;100013.63;2084471;83;21074;-68
2021/06/29 02:08:45;;;;;;;13.03;11.50;;;;;;;14.93;71.41;100011.56;2084318;83;21029;-67
2021/06/29 02:11:47;;;;;;;15.85;11.35;;;;;;;14.89;71.46;100012.97;2083142;82;21045;-70
2021/06/29 02:14:49;;;;;;;16.07;11.83;;;;;;;14.87;71.53;100012.36;2081313;82;21166;-72
2021/06/29 02:17:52;;;;;;;13.80;8.83;;;;;;;14.87;71.65;100012.36;2085246;82;21586;-70
2021/06/29 02:20:54;;;;;;;10.30;8.48;;;;;;;14.87;71.18;100011.84;2082865;83;21524;-67
2021/06/29 02:23:56;;;;;;;16.07;10.32;;;;;;;14.83;70.95;100001.22;2085926;83;21012;-71
2021/06/29 02:26:59;;;;;;;14.10;10.00;;;;;;;14.75;70.89;100002.23;2084388;83;21529;-68
2021/06/29 02:30:01;;;;;;;17.48;11.75;;;;;;;14.64;71.30;100009.45;2085443;83;21020;-67
2021/06/29 02:33:03;;;;;;;15.25;9.68;;;;;;;14.55;71.51;100011.42;2081480;83;21429;-68
2021/06/29 02:36:05;;;;;;;15.13;9.83;;;;;;;14.54;71.28;100017.80;2078698;83;20982;-72
2021/06/29 02:39:08;;;;;;;13.35;9.50;;;;;;;14.50;71.10;100018.34;2085375;83;21016;-68
2021/06/29 02:42:11;;;;;;;14.73;10.13;;;;;;;14.48;71.09;100020.39;2086840;83;21060;-69
2021/06/29 02:45:23;;;;;;;15.58;11.88;;;;;;;14.47;71.06;100030.26;2085504;83;21039;-68
2021/06/29 02:48:17;;;;;;;16.30;9.00;;;;;;;14.47;71.37;100023.58;2080189;83;21683;-68
2021/06/29 02:51:19;;;;;;;14.50;8.93;;;;;;;14.46;71.14;100017.91;2097236;82;21055;-70
2021/06/29 02:54:22;;;;;;;16.10;9.50;;;;;;;14.37;70.90;100009.73;2110219;81;21010;-71
2021/06/29 02:57:24;;;;;;;14.87;11.93;;;;;;;14.33;71.16;100015.98;2112650;81;21153;-67
2021/06/29 03:00:25;;;;;;;14.68;11.10;;;;;;;14.32;71.38;100010.31;2107122;82;21001;-69
2021/06/29 03:03:27;;;;;;;15.65;13.20;;;;;;;14.30;71.62;100004.36;2119466;82;21091;-68
2021/06/29 03:06:29;;;;;;;17.70;10.23;;;;;;;14.33;71.90;100002.64;2101097;82;21017;-70
2021/06/29 03:09:31;;;;;;;17.60;9.93;;;;;;;14.41;71.79;100000.30;2088747;82;21065;-72
2021/06/29 03:12:34;;;;;;;15.35;13.08;;;;;;;14.47;71.71;100001.38;2113170;82;20995;-69
2021/06/29 03:15:36;;;;;;;17.87;12.05;;;;;;;14.53;72.07;100005.98;2106894;82;21031;-71
2021/06/29 03:18:38;;;;;;;17.42;12.23;;;;;;;14.61;72.06;100010.33;2105925;81;21164;-68
2021/06/29 03:21:40;;;;;;;17.42;12.68;;;;;;;14.72;72.13;100003.93;2106715;82;21120;-68
2021/06/29 03:24:42;;;;;;;17.15;12.47;;;;;;;14.84;72.15;100003.37;2085132;82;20995;-68
2021/06/29 03:27:43;;;;;;;18.23;12.88;;;;;;;14.93;72.21;100012.90;2113109;82;21135;-67
2021/06/29 03:30:45;;;;;;;14.50;11.88;;;;;;;15.10;72.29;100008.87;2112498;82;21096;-71
2021/06/29 03:33:49;;;;;;;15.55;13.35;;;;;;;15.45;72.26;100007.45;2095547;83;21050;-68
2021/06/29 03:36:51;;;;;;;19.20;13.43;;;;;;;15.91;72.07;100009.45;2108423;82;21116;-71
2021/06/29 03:39:53;;;;;;;14.30;12.35;;;;;;;16.41;71.66;100013.86;2108631;82;21129;-67
2021/06/29 03:42:55;;;;;;;17.87;13.50;;;;;;;16.84;70.98;100011.23;2114187;82;21062;-67
2021/06/29 03:45:56;;;;;;;16.60;11.65;;;;;;;17.15;70.67;100010.55;2109586;82;21109;-72
2021/06/29 03:49:01;;;;;;;15.78;12.00;;;;;;;17.63;70.28;100010.10;2108185;81;20975;-68
2021/06/29 03:52:05;;;;;;;16.23;12.80;;;;;;;18.08;69.46;100001.98;2092600;82;21082;-67
2021/06/29 03:55:08;;;;;;;15.78;11.65;;;;;;;18.37;68.55;99993.24;2082460;84;20970;-67
2021/06/29 03:58:12;;;;;;;13.98;10.90;;;;;;;18.54;67.92;99989.99;2083042;82;21054;-72
2021/06/29 04:01:13;;;;;;;18.75;10.90;;;;;;;18.81;67.84;99996.77;2083594;84;21535;-71
2021/06/29 04:04:15;;;;;;;20.40;11.70;;;;;;;19.26;67.48;100005.05;2083990;84;21048;-68
2021/06/29 04:07:18;;;;;;;13.53;11.63;;;;;;;19.70;66.85;100003.82;2085457;82;21011;-68
2021/06/29 04:10:19;;;;;;;13.58;11.95;;;;;;;20.10;66.16;100004.58;2084100;84;22018;-69
2021/06/29 04:13:21;;;;;;;12.93;11.53;;;;;;;20.45;65.51;100001.08;2086764;82;21043;-68
2021/06/29 04:16:26;;;;;;;14.80;11.38;;;;;;;20.76;64.79;100005.31;2080522;82;21027;-72
2021/06/29 04:19:27;;;;;;;16.77;12.55;;;;;;;20.92;64.37;100007.82;2076893;84;21101;-67
2021/06/29 04:22:29;;;;;;;17.55;12.20;;;;;;;21.37;64.34;100009.00;2081721;84;21093;-68
2021/06/29 04:25:31;;;;;;;12.93;11.30;;;;;;;21.92;63.84;100009.74;2078743;84;21008;-69
2021/06/29 04:28:32;;;;;;;15.95;12.40;;;;;;;22.29;62.82;100007.94;2086293;84;21009;-69
2021/06/29 04:31:34;;;;;;;14.75;11.55;;;;;;;22.60;62.06;100013.27;2078491;84;21066;-69
2021/06/29 04:34:35;;;;;;;18.17;11.93;;;;;;;23.05;61.65;100006.87;2086625;84;21554;-70
2021/06/29 04:37:40;;;;;;;14.40;12.10;;;;;;;23.54;60.82;100010.97;2084103;84;21035;-67
2021/06/29 04:40:42;;;;;;;18.00;12.30;;;;;;;24.05;59.87;100010.66;2083211;82;21129;-69
2021/06/29 04:43:45;;;;;;;14.00;12.33;;;;;;;24.31;58.85;100006.24;2087839;84;21077;-70
2021/06/29 04:46:49;;;;;;;16.65;12.07;;;;;;;24.71;58.67;100011.68;2082185;82;21008;-69
2021/06/29 04:49:55;;;;;;;14.35;12.75;;;;;;;25.07;57.78;100010.50;2082087;84;21070;-71
2021/06/29 04:52:57;;;;;;;15.75;13.32;;;;;;;25.48;56.82;100010.95;2085294;83;21036;-70
2021/06/29 04:56:00;;;;;;;15.23;13.72;;;;;;;25.26;55.84;100003.00;2073175;84;21105;-70
2021/06/29 04:59:02;;;;;;;13.75;12.45;;;;;;;25.26;55.22;100001.65;2080148;84;21000;-69
2021/06/29 05:02:04;;;;;;;13.62;12.18;;;;;;;25.28;55.43;100006.80;2084879;84;21087;-68
2021/06/29 05:05:09;;;;;;;14.23;12.37;;;;;;;25.30;54.83;100005.19;2090880;82;21081;-70
2021/06/29 05:08:14;;;;;;;12.37;11.22;;;;;;;24.99;53.56;100002.32;2080723;84;21057;-71
2021/06/29 05:11:16;;;;;;;15.72;12.28;;;;;;;25.03;54.10;99997.47;2084057;84;21022;-69
2021/06/29 05:14:17;;;;;;;15.40;13.00;;;;;;;25.10;53.88;100006.70;2081307;84;21000;-70
2021/06/29 05:17:19;;;;;;;14.45;12.90;;;;;;;25.43;54.25;100005.50;2087173;84;21023;-70
2021/06/29 05:20:20;;;;;;;16.02;14.40;;;;;;;25.70;53.32;100008.52;2082956;84;21063;-69
2021/06/29 05:23:23;;;;;;;15.05;13.08;;;;;;;25.79;52.84;100006.09;2085630;84;21161;-68
2021/06/29 05:26:26;;;;;;;16.15;12.95;;;;;;;26.12;53.01;99999.34;2088521;84;21150;-69
2021/06/29 05:29:28;;;;;;;15.93;12.40;;;;;;;26.50;52.79;99999.86;2082722;84;20997;-70
2021/06/29 05:32:30;;;;;;;14.10;12.80;;;;;;;26.82;52.48;99992.71;2085671;82;21576;-70
2021/06/29 05:35:31;;;;;;;13.80;12.40;;;;;;;27.23;51.51;99989.31;2084645;82;21027;-70
2021/06/29 05:38:33;;;;;;;13.13;11.53;;;;;;;27.46;50.90;99987.00;2085146;84;21108;-71
2021/06/29 05:41:36;;;;;;;14.63;12.05;;;;;;;27.74;50.97;99980.00;2081419;82;21515;-71
2021/06/29 05:44:39;;;;;;;12.85;11.45;;;;;;;28.23;50.30;99975.52;2088289;82;20999;-71
2021/06/29 05:47:42;;;;;;;14.33;11.45;;;;;;;28.58;49.76;99977.92;2081315;84;21051;-71
2021/06/29 05:50:46;;;;;;;15.78;11.90;;;;;;;28.73;48.81;99973.38;2084763;84;21121;-70
2021/06/29 05:53:48;;;;;;;13.28;10.55;;;;;;;28.60;48.85;99959.87;2062873;84;21195;-71
2021/06/29 05:56:50;;;;;;;14.10;10.05;;;;;;;28.71;48.50;99967.39;2057573;84;20983;-71
2021/06/29 05:59:51;;;;;;;12.93;10.60;;;;;;;29.11;48.06;99966.09;2069684;84;21086;-70
2021/06/29 06:02:53;;;;;;;11.45;10.15;;;;;;;29.08;47.65;99957.13;2080414;83;21057;-70
2021/06/29 06:05:58;;;;;;;12.95;11.50;;;;;;;29.15;47.37;99958.95;2080191;83;21733;-71
2021/06/29 06:09:00;;;;;;;12.68;10.03;;;;;;;29.31;47.22;99959.53;2086304;82;21113;-71
2021/06/29 06:12:03;;;;;;;13.68;10.30;;;;;;;29.45;46.66;99947.30;2080186;83;21131;-71
2021/06/29 06:15:06;;;;;;;12.78;11.45;;;;;;;29.40;46.15;99946.04;2073453;83;21046;-70
2021/06/29 06:18:08;;;;;;;14.78;11.55;;;;;;;29.65;45.77;99940.73;2076776;83;21088;-70
2021/06/29 06:21:10;;;;;;;12.45;10.48;;;;;;;29.69;45.92;99942.59;2078620;83;20996;-71
2021/06/29 06:24:13;;;;;;;12.13;9.90;;;;;;;29.90;45.97;99939.50;2080829;83;21130;-72
2021/06/29 06:27:16;;;;;;;9.88;8.88;;;;;;;30.26;45.72;99943.01;2081097;83;21075;-70
2021/06/29 06:30:19;;;;;;;9.18;7.75;;;;;;;30.67;44.97;99948.51;2079419;84;21057;-72
2021/06/29 06:33:22;;;;;;;9.55;8.35;;;;;;;30.85;42.97;99952.83;2085710;83;21084;-72
2021/06/29 06:36:24;;;;;;;12.75;7.70;;;;;;;30.85;42.97;99952.83;2080877;83;21026;-71
2021/06/29 06:39:28;;;;;;;8.35;6.28;;;;;;;30.90;43.21;99960.95;2082711;83;22282;-72
2021/06/29 06:42:29;;;;;;;10.85;6.95;;;;;;;30.58;40.25;99956.63;2082570;84;21057;-71
2021/06/29 06:45:31;;;;;;;10.93;7.08;;;;;;;30.00;40.33;99960.41;2083401;83;20973;-71
2021/06/29 06:48:33;;;;;;;9.35;6.15;;;;;;;29.89;40.75;99961.14;2092853;82;20996;-71
2021/06/29 06:51:35;;;;;;;9.68;7.05;;;;;;;29.64;40.48;99950.05;2087454;83;20982;-71
2021/06/29 06:54:37;;;;;;;7.78;7.05;;;;;;;29.31;40.83;99951.89;2076385;84;21101;-71
2021/06/29 06:57:38;;;;;;;7.75;6.90;;;;;;;28.90;40.46;99949.70;2055098;84;21137;-70
2021/06/29 07:00:40;;;;;;;11.15;7.20;;;;;;;28.74;40.61;99953.97;2047209;85;21053;-70
2021/06/29 07:03:42;;;;;;;8.15;6.95;;;;;;;28.74;40.85;99951.80;2066194;84;21581;-71
2021/06/29 07:06:44;;;;;;;9.93;7.15;;;;;;;28.61;41.43;99954.69;2077068;83;21045;-71
2021/06/29 07:09:45;;;;;;;11.65;7.47;;;;;;;28.55;40.68;99960.77;2053366;84;21063;-70
2021/06/29 07:12:47;;;;;;;8.88;7.80;;;;;;;28.50;41.32;99969.00;2066382;83;21058;-71
2021/06/29 07:15:48;;;;;;;8.53;7.72;;;;;;;28.52;41.81;99970.89;2066598;83;20988;-71
2021/06/29 07:18:50;;;;;;;8.60;7.75;;;;;;;28.71;41.74;99967.39;2043428;85;21014;-71
2021/06/29 07:21:52;;;;;;;8.50;7.17;;;;;;;28.80;40.37;99971.09;2046629;84;21102;-71
2021/06/29 07:24:54;;;;;;;13.03;8.03;;;;;;;28.87;40.83;99968.84;2053561;84;21074;-72
2021/06/29 07:27:55;;;;;;;8.18;7.37;;;;;;;28.96;40.79;99973.91;2051835;84;21016;-69
2021/06/29 07:31:00;;;;;;;7.97;7.00;;;;;;;29.03;40.61;99974.94;2070483;83;21074;-69
2021/06/29 07:34:02;;;;;;;9.20;7.58;;;;;;;28.98;40.38;99973.07;2073180;84;21085;-71
2021/06/29 07:37:05;;;;;;;10.60;7.20;;;;;;;28.97;40.57;99967.89;2073541;84;21030;-69
2021/06/29 07:40:08;;;;;;;8.35;6.83;;;;;;;28.86;41.15;99957.64;2072347;83;21022;-70
2021/06/29 07:43:10;;;;;;;8.33;6.40;;;;;;;28.98;41.14;99961.34;2072209;84;21028;-70
2021/06/29 07:46:13;;;;;;;7.05;6.35;;;;;;;29.16;40.40;99954.30;2070975;83;21042;-70
2021/06/29 07:49:16;;;;;;;8.75;6.72;;;;;;;29.41;40.73;99949.83;2074312;83;21296;-70
2021/06/29 07:52:17;;;;;;;7.12;6.15;;;;;;;29.27;39.01;99944.28;2068073;84;21575;-70
2021/06/29 07:55:19;;;;;;;7.28;6.55;;;;;;;29.10;38.60;99952.74;2065838;84;21628;-75
2021/06/29 07:58:23;;;;;;;7.53;6.10;;;;;;;29.19;39.41;99953.14;2059752;85;21154;-71
2021/06/29 08:01:24;;;;;;;8.85;5.65;;;;;;;29.39;38.89;99945.77;2060288;84;21017;-71
2021/06/29 08:04:26;;;;;;;11.55;6.10;;;;;;;29.36;37.40;99944.43;2060846;84;20998;-70
2021/06/29 08:07:29;;;;;;;7.08;6.37;;;;;;;29.30;38.50;99945.62;2062422;84;21084;-71
2021/06/29 08:10:36;;;;;;;8.05;6.12;;;;;;;29.41;38.63;99949.83;2061019;84;21055;-71
2021/06/29 08:13:39;;;;;;;5.85;5.30;;;;;;;29.24;37.13;99950.91;2062182;84;21831;-70
2021/06/29 08:16:43;;;;;;;7.17;5.10;;;;;;;29.36;38.51;99944.98;2063393;84;21465;-70
2021/06/29 08:19:45;;;;;;;5.72;5.22;;;;;;;29.47;38.28;99947.27;2058518;84;21021;-70
2021/06/29 08:22:50;;;;;;;6.12;5.17;;;;;;;29.49;36.67;99938.78;2060766;84;21054;-70
2021/06/29 08:25:52;;;;;;;7.72;4.87;;;;;;;29.42;36.44;99939.70;2062364;84;21062;-71
2021/06/29 08:28:53;;;;;;;5.25;4.70;;;;;;;29.54;36.25;99935.14;2065531;84;21042;-72
2021/06/29 08:31:55;;;;;;;4.85;4.45;;;;;;;29.68;36.55;99934.70;2064100;84;21070;-70
2021/06/29 08:34:57;;;;;;;7.45;4.40;;;;;;;29.96;35.69;99940.23;2062071;85;21022;-71
2021/06/29 08:38:00;;;;;;;7.60;4.90;;;;;;;30.12;34.80;99941.58;2064040;84;20999;-71
2021/06/29 08:41:02;;;;;;;4.97;4.42;;;;;;;30.20;34.48;99931.87;2064907;84;21068;-70
2021/06/29 08:44:06;;;;;;;4.20;3.90;;;;;;;30.29;34.20;99940.47;2062244;84;20995;-70
2021/06/29 08:47:09;;;;;;;4.70;4.30;;;;;;;30.34;34.07;99937.64;2059170;84;21017;-70
2021/06/29 08:50:14;;;;;;;4.40;4.00;;;;;;;30.19;33.45;99937.11;2062107;85;21454;-70
2021/06/29 08:53:16;;;;;;;5.20;4.62;;;;;;;30.19;34.62;99934.38;2084210;82;21121;-70
2021/06/29 08:56:17;;;;;;;5.25;4.75;;;;;;;30.30;33.97;99932.53;2115433;82;21160;-71
2021/06/29 08:59:19;;;;;;;5.15;4.65;;;;;;;30.40;33.83;99926.60;2111714;82;21514;-71
2021/06/29 09:02:21;;;;;;;5.12;4.60;;;;;;;30.49;33.83;99926.14;2112885;82;21031;-71
2021/06/29 09:05:28;;;;;;;4.87;4.30;;;;;;;30.68;34.24;99928.78;2111366;81;21124;-72
2021/06/29 09:08:37;;;;;;;4.40;4.00;;;;;;;30.72;33.87;99928.41;2100129;82;21065;-71
2021/06/29 09:11:39;;;;;;;5.53;4.27;;;;;;;30.45;33.31;99913.62;2091293;83;21103;-71
2021/06/29 09:14:40;;;;;;;5.58;3.75;;;;;;;30.13;33.02;99919.41;2109642;81;21046;-70
2021/06/29 09:17:43;;;;;;;4.40;4.00;;;;;;;29.99;33.15;99909.01;2110660;81;21027;-70
2021/06/29 09:20:56;;;;;;;5.25;3.98;;;;;;;29.80;31.63;99913.72;2110275;82;21490;-70
2021/06/29 09:23:58;;;;;;;6.03;4.00;;;;;;;29.55;31.91;99913.55;2113699;82;21053;-71
2021/06/29 09:27:03;;;;;;;5.40;3.95;;;;;;;29.68;32.05;99905.43;2106661;82;21146;-70
2021/06/29 09:30:36;;;;;;;7.28;4.10;;;;;;;29.61;31.59;99898.12;2113103;81;21144;-70
2021/06/29 09:33:41;;;;;;;4.03;3.62;;;;;;;29.39;32.81;99895.20;2105554;82;21116;-71
2021/06/29 09:36:43;;;;;;;4.17;3.85;;;;;;;29.18;33.74;99890.62;2106281;81;21467;-71
2021/06/29 09:39:48;;;;;;;5.17;3.60;;;;;;;28.96;32.51;99887.89;2109818;81;21487;-70
2021/06/29 09:42:50;;;;;;;4.42;4.03;;;;;;;28.81;33.80;99890.28;2109312;81;21016;-71
2021/06/29 09:45:59;;;;;;;3.47;3.05;;;;;;;28.82;33.76;99884.27;2117066;82;21082;-71
2021/06/29 09:49:13;;;;;;;3.60;3.30;;;;;;;28.81;33.10;99875.27;2078943;83;21997;-70
2021/06/29 09:52:14;;;;;;;5.72;3.40;;;;;;;28.83;33.44;99870.86;2101882;83;21118;-71
2021/06/29 09:55:39;;;;;;;3.98;3.58;;;;;;;28.84;33.88;99871.14;2087119;83;21073;-70
2021/06/29 09:58:45;;;;;;;5.15;3.72;;;;;;;28.92;33.96;99861.45;2092758;83;21521;-71
2021/06/29 10:01:48;;;;;;;3.98;3.65;;;;;;;28.86;34.80;99851.72;2089178;83;21115;-71
2021/06/29 10:04:54;;;;;;;5.28;3.67;;;;;;;28.74;35.15;99858.42;2074031;83;21018;-70
2021/06/29 10:07:55;;;;;;;5.40;3.12;;;;;;;28.49;34.54;99843.19;2085152;82;21065;-71
2021/06/29 10:11:21;;;;;;;3.17;2.98;;;;;;;28.42;34.58;99839.19;2092810;82;20989;-70
2021/06/29 10:14:24;;;;;;;3.72;3.42;;;;;;;28.47;34.35;99837.23;2090434;83;21102;-71
2021/06/29 10:17:25;;;;;;;4.92;3.20;;;;;;;28.40;34.72;99827.19;2094823;83;20995;-70
2021/06/29 10:20:37;;;;;;;3.47;3.17;;;;;;;28.32;34.12;99812.83;2088524;83;21455;-71
2021/06/29 10:23:31;;;;;;;5.55;3.55;;;;;;;28.15;34.62;99807.29;2093006;82;21085;-71
2021/06/29 10:26:39;;;;;;;4.17;3.77;;;;;;;28.16;34.81;99803.48;2088732;83;21078;-69
2021/06/29 10:29:44;;;;;;;6.22;3.40;;;;;;;28.20;34.30;99799.61;2097384;82;21122;-70
2021/06/29 10:32:46;;;;;;;6.85;3.45;;;;;;;28.25;33.95;99800.92;2091838;83;21515;-70
2021/06/29 10:35:48;;;;;;;7.40;3.30;;;;;;;28.26;33.82;99799.00;2089012;83;21347;-70
2021/06/29 10:38:52;;;;;;;3.10;2.83;;;;;;;28.47;34.80;99800.41;2089742;83;21028;-71
2021/06/29 10:42:05;;;;;;;5.65;3.25;;;;;;;28.77;34.22;99810.05;2089107;83;21607;-70
2021/06/29 10:45:14;;;;;;;3.75;2.98;;;;;;;29.15;33.98;99816.10;2086549;82;20996;-71
2021/06/29 10:48:24;;;;;;;4.22;3.00;;;;;;;29.35;33.48;99817.69;2091763;82;21138;-71
2021/06/29 10:51:39;;;;;;;4.60;2.92;;;;;;;29.33;34.31;99828.90;2091148;82;21010;-71
2021/06/29 10:55:12;;;;;;;3.47;3.00;;;;;;;29.18;33.84;99823.70;2095659;83;21648;-70
2021/06/29 10:58:19;;;;;;;4.05;3.35;;;;;;;29.16;34.33;99824.55;2088986;83;21635;-70
2021/06/29 11:01:33;;;;;;;3.35;3.05;;;;;;;29.25;33.64;99822.75;2095296;83;21064;-71
2021/06/29 11:04:54;;;;;;;3.55;3.05;;;;;;;29.25;33.18;99807.16;2090933;83;21021;-71
2021/06/29 11:08:28;;;;;;;3.20;2.90;;;;;;;29.12;33.16;99807.14;2094819;82;21029;-70
2021/06/29 11:11:31;;;;;;;4.30;3.12;;;;;;;29.08;32.52;99808.83;2104556;82;21061;-72
2021/06/29 11:14:36;;;;;;;4.08;2.37;;;;;;;29.08;32.81;99805.53;2093290;82;21476;-71
2021/06/29 11:17:54;;;;;;;3.22;2.55;;;;;;;29.30;31.91;99799.45;2096576;82;21102;-70
2021/06/29 11:20:55;;;;;;;4.87;2.60;;;;;;;29.41;31.86;99799.53;2088081;82;21614;-69
2021/06/29 11:23:57;;;;;;;4.12;2.60;;;;;;;29.48;31.40;99797.23;2089327;83;21109;-69
2021/06/29 11:26:59;;;;;;;2.83;2.62;;;;;;;29.41;31.03;99783.70;2087691;82;21455;-70
2021/06/29 11:30:05;;;;;;;3.35;2.60;;;;;;;29.41;31.35;99787.79;2086279;83;20991;-69
2021/06/29 11:33:38;;;;;;;2.52;2.27;;;;;;;29.17;31.59;99779.72;2088802;82;21612;-69
2021/06/29 11:36:43;;;;;;;3.58;2.65;;;;;;;28.95;31.60;99774.88;2088793;83;21119;-70
2021/06/29 11:39:57;;;;;;;4.05;2.90;;;;;;;29.10;31.81;99775.20;2090004;83;21328;-70
2021/06/29 11:43:09;;;;;;;3.62;2.80;;;;;;;29.12;31.60;99766.17;2074892;82;21012;-68
2021/06/29 11:46:11;;;;;;;4.97;2.95;;;;;;;29.25;32.08;99764.02;2092833;82;21004;-68
2021/06/29 11:49:14;;;;;;;3.25;2.70;;;;;;;29.64;32.45;99764.17;2094244;83;21035;-69
2021/06/29 11:52:32;;;;;;;3.67;3.02;;;;;;;29.87;31.64;99759.63;2090196;83;21126;-68
2021/06/29 11:55:38;;;;;;;3.47;3.15;;;;;;;29.90;32.01;99768.05;2093080;82;21505;-70
2021/06/29 11:58:47;;;;;;;4.15;2.67;;;;;;;29.98;31.65;99771.17;2093238;83;21104;-71
2021/06/29 12:02:05;;;;;;;3.13;2.83;;;;;;;29.77;31.05;99763.38;2098310;83;21027;-75
2021/06/29 12:05:16;;;;;;;5.03;2.70;;;;;;;29.55;31.24;99755.03;2090766;82;21015;-71
2021/06/29 12:08:14;;;;;;;3.40;3.08;;;;;;;29.45;31.00;99758.73;2093728;82;21049;-69
2021/06/29 12:11:16;;;;;;;3.67;2.62;;;;;;;29.37;32.01;99750.70;2090360;82;21020;-69
2021/06/29 12:14:21;;;;;;;5.55;2.65;;;;;;;29.51;31.77;99748.00;2094511;83;21007;-69
2021/06/29 12:17:22;;;;;;;3.45;2.42;;;;;;;29.59;31.75;99738.27;2090518;82;21062;-72
2021/06/29 12:20:29;;;;;;;3.10;2.72;;;;;;;29.81;31.36;99736.23;2093116;83;21049;-69
2021/06/29 12:23:40;;;;;;;3.22;2.55;;;;;;;29.72;31.40;99734.77;2090664;83;21506;-68
2021/06/29 12:26:41;;;;;;;4.55;2.67;;;;;;;29.67;31.77;99730.76;2090530;82;21485;-68
2021/06/29 12:29:43;;;;;;;3.35;3.02;;;;;;;29.97;31.42;99725.80;2091890;82;21007;-68
2021/06/29 12:32:44;;;;;;;3.10;2.80;;;;;;;30.12;31.48;99721.37;2089824;83;21443;-68
2021/06/29 12:35:53;;;;;;;2.83;2.62;;;;;;;30.13;30.32;99704.66;2087975;82;21020;-69
2021/06/29 12:39:03;;;;;;;4.03;2.72;;;;;;;30.21;30.89;99688.62;2088938;83;21042;-68
2021/06/29 12:42:14;;;;;;;4.65;2.92;;;;;;;30.32;30.22;99686.73;2090434;82;21035;-70
2021/06/29 12:45:17;;;;;;;3.45;2.62;;;;;;;30.23;30.58;99690.52;2087173;83;21179;-71
2021/06/29 12:48:18;;;;;;;3.72;2.60;;;;;;;30.23;31.09;99690.52;2092300;83;21095;-69
2021/06/29 12:51:20;;;;;;;4.25;2.92;;;;;;;30.14;29.96;99689.05;2089413;82;21033;-68
2021/06/29 12:54:26;;;;;;;8.93;3.00;;;;;;;29.97;30.59;99684.78;2090549;84;20983;-69
2021/06/29 12:57:28;;;;;;;3.62;2.85;;;;;;;29.87;31.73;99685.79;2094945;83;21091;-69
2021/06/29 13:00:30;;;;;;;3.58;3.27;;;;;;;29.92;31.58;99668.72;2091858;83;20990;-73
2021/06/29 13:03:35;;;;;;;3.62;2.80;;;;;;;29.87;31.31;99667.45;2090522;82;21474;-71
2021/06/29 13:06:41;;;;;;;3.12;2.83;;;;;;;29.86;30.99;99659.02;2087170;83;21059;-69
2021/06/29 13:09:44;;;;;;;3.52;2.65;;;;;;;29.95;31.45;99653.62;2091005;83;20992;-69
2021/06/29 13:12:46;;;;;;;5.58;2.90;;;;;;;30.04;32.01;99653.70;2091207;83;21355;-68
2021/06/29 13:15:50;;;;;;;3.87;2.65;;;;;;;30.22;31.92;99641.84;2089340;83;21037;-71
2021/06/29 13:18:52;;;;;;;5.55;2.77;;;;;;;30.26;31.87;99640.09;2088692;83;21625;-69
2021/06/29 13:22:00;;;;;;;3.33;2.87;;;;;;;30.25;31.94;99637.12;2089085;83;21090;-69
2021/06/29 13:25:01;;;;;;;4.45;3.20;;;;;;;30.22;31.31;99643.77;2092085;82;21108;-69
2021/06/29 13:28:13;;;;;;;4.40;3.02;;;;;;;30.21;31.44;99636.07;2091388;83;21050;-68
2021/06/29 13:31:15;;;;;;;5.72;2.90;;;;;;;30.19;31.51;99642.44;2093702;83;21616;-69
2021/06/29 13:34:26;;;;;;;3.12;2.83;;;;;;;30.22;30.88;99626.80;2091958;83;21008;-69
2021/06/29 13:37:29;;;;;;;3.58;2.83;;;;;;;30.09;30.75;99630.34;2093503;82;21035;-69
2021/06/29 13:40:33;;;;;;;5.40;2.77;;;;;;;29.93;30.73;99618.39;2094808;83;21511;-69
2021/06/29 13:43:37;;;;;;;3.17;2.87;;;;;;;29.89;31.36;99617.38;2093913;83;20961;-69
2021/06/29 13:46:42;;;;;;;3.90;2.80;;;;;;;29.97;30.96;99620.52;2089312;83;21129;-68
2021/06/29 13:50:02;;;;;;;4.17;2.95;;;;;;;29.96;31.11;99607.94;2089868;82;21445;-68
2021/06/29 13:53:10;;;;;;;4.10;3.00;;;;;;;29.99;31.59;99602.68;2092736;83;21129;-69
2021/06/29 13:56:14;;;;;;;4.92;2.85;;;;;;;30.11;31.84;99596.66;2092022;83;21044;-68
2021/06/29 13:59:41;;;;;;;2.90;2.58;;;;;;;30.16;32.48;99588.34;2096912;82;21061;-69
2021/06/29 14:02:40;;;;;;;3.77;2.50;;;;;;;30.09;31.52;99588.75;2097332;82;21022;-68
2021/06/29 14:05:46;;;;;;;5.83;2.95;;;;;;;30.07;30.91;99585.54;2092259;82;22182;-69
2021/06/29 14:08:49;;;;;;;5.72;3.00;;;;;;;29.88;31.49;99585.69;2095949;83;21107;-74
2021/06/29 14:11:50;;;;;;;7.75;3.00;;;;;;;29.71;31.63;99580.06;2091145;83;21655;-69
2021/06/29 14:15:06;;;;;;;3.58;2.90;;;;;;;29.55;32.28;99582.84;2093296;82;21051;-73